Time;durP1;ratioP1;P1;durP2;ratioP2;P2;SDS_P1;SDS_P2;PMS_P1;PMS_P2;Temp;Humidity;BMP_temperature;BMP_pressure;BME280_temperature;BME280_humidity;BME280_pressure;Samples;Min_cycle;Max_cycle;Signal;HPM_P1;HPM_P2
2022/08/04 00:00:09;;;;;;;0.40;0.20;;;22.40;99.90;;;;;;4988169;28;20956;-68
2022/08/04 00:02:43;;;;;;;0.40;0.20;;;22.40;99.90;;;;;;4988107;28;20414;-68
2022/08/04 00:05:35;;;;;;;0.40;0.30;;;22.40;99.90;;;;;;4988174;28;20878;-68
2022/08/04 00:08:19;;;;;;;0.40;0.20;;;22.30;99.90;;;;;;4957565;28;20402;-68
2022/08/04 00:10:51;;;;;;;0.40;0.30;;;22.40;99.90;;;;;;4948977;28;20417;-68
2022/08/04 00:13:22;;;;;;;0.40;0.20;;;22.50;99.90;;;;;;4949292;28;20487;-68
2022/08/04 00:15:52;;;;;;;0.90;0.60;;;22.40;99.90;;;;;;4966021;28;20454;-69
2022/08/04 00:18:21;;;;;;;0.40;0.30;;;22.40;99.90;;;;;;4987821;28;20410;-68
2022/08/04 00:20:48;;;;;;;0.50;0.50;;;22.30;99.90;;;;;;4987441;28;20497;-69
2022/08/04 00:23:17;;;;;;;0.40;0.20;;;22.30;99.90;;;;;;4971685;28;20816;-68
2022/08/04 00:25:43;;;;;;;0.70;0.70;;;22.20;99.90;;;;;;4987734;28;20405;-68
2022/08/04 00:28:09;;;;;;;0.40;0.20;;;22.20;99.90;;;;;;4971820;28;20426;-69
2022/08/04 00:30:36;;;;;;;0.70;0.60;;;22.10;99.90;;;;;;4971692;28;20430;-68
2022/08/04 00:33:01;;;;;;;0.40;0.25;;;22.20;99.90;;;;;;4971088;28;20406;-69
2022/08/04 00:35:28;;;;;;;0.40;0.20;;;22.00;99.90;;;;;;4971047;28;20444;-68
2022/08/04 00:37:54;;;;;;;0.40;0.30;;;22.00;99.90;;;;;;4971215;28;20452;-68
2022/08/04 00:40:29;;;;;;;0.40;0.20;;;22.00;99.90;;;;;;4971140;28;20426;-69
2022/08/04 00:43:10;;;;;;;0.40;0.30;;;21.90;99.90;;;;;;4987649;28;20394;-68
2022/08/04 00:46:02;;;;;;;0.40;0.30;;;21.80;99.90;;;;;;4986969;28;20423;-68
2022/08/04 00:48:56;;;;;;;0.40;0.20;;;21.80;99.90;;;;;;4987315;28;20427;-68
2022/08/04 00:51:48;;;;;;;0.90;0.90;;;21.80;99.90;;;;;;4987701;28;20406;-68
2022/08/04 00:54:47;;;;;;;0.40;0.30;;;21.80;99.90;;;;;;4986711;28;20906;-68
2022/08/04 00:57:49;;;;;;;0.40;0.20;;;21.80;99.90;;;;;;4981021;28;20468;-68
2022/08/04 01:00:16;;;;;;;0.50;0.40;;;21.70;99.90;;;;;;5029976;28;20505;-68
2022/08/04 01:03:16;;;;;;;0.40;0.30;;;21.70;99.90;;;;;;4974281;28;20410;-69
2022/08/04 01:05:51;;;;;;;0.40;0.20;;;21.80;99.90;;;;;;4990508;28;20866;-69
2022/08/04 01:08:17;;;;;;;0.40;0.20;;;21.80;99.90;;;;;;4990982;28;20399;-69
2022/08/04 01:11:12;;;;;;;0.40;0.20;;;21.60;99.90;;;;;;4990450;28;20901;-68
2022/08/04 01:13:53;;;;;;;0.90;0.70;;;21.70;99.90;;;;;;4990688;28;20809;-68
2022/08/04 01:16:26;;;;;;;0.40;0.20;;;21.70;99.90;;;;;;4990372;28;20922;-69
2022/08/04 01:18:55;;;;;;;0.40;0.20;;;21.60;99.90;;;;;;4974432;28;20733;-68
2022/08/04 01:21:46;;;;;;;0.50;0.50;;;21.70;99.90;;;;;;4990204;28;20506;-69
2022/08/04 01:24:29;;;;;;;0.40;0.30;;;21.60;99.90;;;;;;4990143;28;20410;-68
2022/08/04 01:27:00;;;;;;;0.40;0.30;;;21.60;99.90;;;;;;4990315;28;20395;-68
2022/08/04 01:29:29;;;;;;;0.40;0.30;;;21.70;99.90;;;;;;4990889;28;20905;-68
2022/08/04 01:32:01;;;;;;;0.50;0.40;;;21.70;99.90;;;;;;4974015;28;20418;-68
2022/08/04 01:34:51;;;;;;;0.40;0.30;;;21.60;99.90;;;;;;4990691;28;20553;-69
2022/08/04 01:37:54;;;;;;;0.50;0.50;;;21.60;99.90;;;;;;4990469;28;20412;-68
2022/08/04 01:40:20;;;;;;;0.40;0.30;;;21.60;99.90;;;;;;4989934;28;20483;-69
2022/08/04 01:42:51;;;;;;;0.40;0.30;;;21.60;99.90;;;;;;4973832;28;20391;-68
2022/08/04 01:45:17;;;;;;;0.40;0.30;;;21.60;99.90;;;;;;4991054;28;20922;-68
2022/08/04 01:47:50;;;;;;;0.40;0.20;;;21.70;99.90;;;;;;4973769;28;20443;-69
2022/08/04 01:50:16;;;;;;;0.40;0.20;;;21.60;99.90;;;;;;4989828;28;20410;-68
2022/08/04 01:52:43;;;;;;;0.40;0.20;;;21.60;99.90;;;;;;4974030;28;20443;-68
2022/08/04 01:55:11;;;;;;;0.50;0.40;;;21.70;99.90;;;;;;4982976;28;20467;-69
2022/08/04 01:57:41;;;;;;;0.40;0.30;;;21.60;99.90;;;;;;4970825;28;20428;-68
2022/08/04 02:00:09;;;;;;;0.50;0.40;;;21.50;99.90;;;;;;4970625;28;20426;-68
2022/08/04 02:02:34;;;;;;;0.40;0.30;;;21.50;99.90;;;;;;4956350;28;20404;-69
2022/08/04 02:05:00;;;;;;;0.40;0.20;;;21.40;99.90;;;;;;4973085;28;20402;-69
2022/08/04 02:08:02;;;;;;;0.40;0.20;;;21.30;99.90;;;;;;4973780;28;20430;-68
2022/08/04 02:10:29;;;;;;;0.40;0.20;;;21.30;99.90;;;;;;4990331;28;20421;-68
2022/08/04 02:13:15;;;;;;;0.40;0.20;;;21.30;99.90;;;;;;4989255;28;20418;-69
2022/08/04 02:15:59;;;;;;;0.40;0.20;;;21.10;99.90;;;;;;4989828;28;20813;-68
2022/08/04 02:18:43;;;;;;;0.40;0.20;;;21.10;99.90;;;;;;4989988;28;20421;-68
2022/08/04 02:21:11;;;;;;;0.40;0.30;;;21.10;99.90;;;;;;4990974;28;20499;-68
2022/08/04 02:23:39;;;;;;;0.40;0.20;;;21.10;99.90;;;;;;4973690;28;20410;-68
2022/08/04 02:26:16;;;;;;;0.40;0.20;;;21.10;99.90;;;;;;4973579;28;20422;-68
2022/08/04 02:28:51;;;;;;;0.40;0.30;;;21.20;99.90;;;;;;4989633;28;20493;-68
2022/08/04 02:31:28;;;;;;;0.40;0.20;;;21.20;99.90;;;;;;4989926;28;20465;-68
2022/08/04 02:34:37;;;;;;;0.40;0.20;;;21.10;99.90;;;;;;4989491;28;20431;-69
2022/08/04 02:37:03;;;;;;;0.40;0.30;;;21.10;99.90;;;;;;4989396;28;20480;-68
2022/08/04 02:39:34;;;;;;;0.50;0.30;;;21.00;99.90;;;;;;4973402;28;20447;-69
2022/08/04 02:42:05;;;;;;;0.52;0.52;;;21.00;99.90;;;;;;4989056;28;20498;-69
2022/08/04 02:44:31;;;;;;;0.40;0.40;;;21.00;99.90;;;;;;4973333;28;20391;-69
2022/08/04 02:46:59;;;;;;;0.40;0.20;;;21.10;99.90;;;;;;4972332;28;20433;-68
2022/08/04 02:49:26;;;;;;;0.40;0.30;;;21.10;99.90;;;;;;4989231;28;20469;-68
2022/08/04 02:51:53;;;;;;;0.40;0.40;;;21.00;99.90;;;;;;4973223;28;20486;-69
2022/08/04 02:54:27;;;;;;;0.40;0.20;;;21.10;99.90;;;;;;4972678;28;20452;-68
2022/08/04 02:56:56;;;;;;;0.40;0.20;;;21.10;99.90;;;;;;4970757;28;20388;-68
2022/08/04 02:59:25;;;;;;;0.40;0.20;;;21.00;99.90;;;;;;4969777;28;20814;-68
2022/08/04 03:01:54;;;;;;;0.40;0.30;;;21.10;99.90;;;;;;4968982;28;20457;-68
2022/08/04 03:04:49;;;;;;;0.40;0.30;;;21.10;99.90;;;;;;4975897;28;20486;-69
2022/08/04 03:07:24;;;;;;;0.40;0.20;;;21.10;99.90;;;;;;4990338;28;20399;-69
2022/08/04 03:09:58;;;;;;;0.40;0.30;;;21.10;99.90;;;;;;4988804;28;20438;-68
2022/08/04 03:12:51;;;;;;;0.40;0.30;;;21.00;99.90;;;;;;4989018;28;20399;-70
2022/08/04 03:15:47;;;;;;;0.40;0.30;;;21.00;99.90;;;;;;4988991;28;20486;-68
2022/08/04 03:18:36;;;;;;;0.40;0.20;;;21.00;99.90;;;;;;4988692;28;20406;-69
2022/08/04 03:21:44;;;;;;;0.40;0.20;;;21.00;99.90;;;;;;4988327;28;20452;-69
2022/08/04 03:24:12;;;;;;;0.50;0.40;;;20.90;99.90;;;;;;4988112;28;20747;-68
2022/08/04 03:26:44;;;;;;;0.40;0.30;;;20.90;99.90;;;;;;4988470;28;20913;-69
2022/08/04 03:29:38;;;;;;;0.40;0.30;;;20.80;99.90;;;;;;4989679;28;20432;-68
2022/08/04 03:32:22;;;;;;;0.40;0.30;;;20.80;99.90;;;;;;4988878;28;20391;-68
2022/08/04 03:35:14;;;;;;;0.40;0.30;;;20.70;99.90;;;;;;4989104;28;20395;-68
2022/08/04 03:38:17;;;;;;;0.40;0.20;;;20.80;99.90;;;;;;4974373;28;20405;-68
2022/08/04 03:41:05;;;;;;;0.40;0.22;;;20.80;99.90;;;;;;5014902;28;20411;-68
2022/08/04 03:43:39;;;;;;;0.40;0.30;;;20.70;99.90;;;;;;4989804;28;20406;-68
2022/08/04 03:46:24;;;;;;;0.80;0.60;;;20.70;99.90;;;;;;4988186;28;20483;-68
2022/08/04 03:49:13;;;;;;;0.40;0.20;;;20.60;99.90;;;;;;4988883;28;20410;-68
2022/08/04 03:54:51;;;;;;;0.40;0.30;;;20.60;99.90;;;;;;4986857;28;20435;-68
2022/08/04 03:57:17;;;;;;;0.40;0.20;;;20.60;99.90;;;;;;5021143;28;20482;-68
2022/08/04 04:00:06;;;;;;;0.40;0.30;;;20.60;99.90;;;;;;4988790;28;20505;-68
2022/08/04 04:02:38;;;;;;;0.40;0.30;;;20.50;99.90;;;;;;4988957;28;20395;-68
2022/08/04 04:05:19;;;;;;;0.40;0.30;;;20.60;99.90;;;;;;4988178;28;20387;-68
2022/08/04 04:07:48;;;;;;;0.40;0.30;;;20.50;99.90;;;;;;4988655;28;20391;-68
2022/08/04 04:10:35;;;;;;;0.40;0.30;;;20.40;99.90;;;;;;4987749;28;20402;-68
2022/08/04 04:13:25;;;;;;;0.60;0.40;;;20.40;99.90;;;;;;4988208;28;20386;-68
2022/08/04 04:15:54;;;;;;;0.40;0.30;;;20.40;99.90;;;;;;4988430;28;20414;-69
2022/08/04 04:18:53;;;;;;;0.40;0.20;;;20.30;99.90;;;;;;4988554;28;20747;-70
2022/08/04 04:21:52;;;;;;;0.40;0.20;;;20.30;99.90;;;;;;4988519;28;20403;-70
2022/08/04 04:24:44;;;;;;;0.40;0.30;;;20.40;99.90;;;;;;4988584;28;20438;-69
2022/08/04 04:27:12;;;;;;;0.40;0.20;;;20.40;99.90;;;;;;5033642;28;21015;-69
2022/08/04 04:30:02;;;;;;;0.40;0.20;;;20.40;99.90;;;;;;4981996;28;20884;-70
2022/08/04 04:32:46;;;;;;;0.40;0.30;;;20.40;99.90;;;;;;5033550;28;20413;-69
2022/08/04 04:35:31;;;;;;;0.40;0.20;;;20.60;99.90;;;;;;4981327;28;20406;-69
2022/08/04 04:38:15;;;;;;;0.40;0.40;;;20.60;99.90;;;;;;5028097;28;20403;-69
2022/08/04 04:41:05;;;;;;;0.40;0.30;;;20.60;99.90;;;;;;4988502;28;20407;-69
2022/08/04 04:43:55;;;;;;;0.40;0.20;;;20.60;99.90;;;;;;4989350;28;20398;-69
2022/08/04 04:46:46;;;;;;;1.00;1.00;;;20.50;99.90;;;;;;4987972;28;20919;-69
2022/08/04 04:49:23;;;;;;;0.40;0.20;;;20.60;99.90;;;;;;4987743;28;20410;-69
2022/08/04 04:52:00;;;;;;;0.40;0.20;;;20.60;99.90;;;;;;4987987;28;20903;-69
2022/08/04 04:54:37;;;;;;;0.40;0.30;;;20.70;99.90;;;;;;4987754;28;20914;-69
2022/08/04 04:57:18;;;;;;;0.40;0.20;;;20.60;99.90;;;;;;4971609;28;20503;-69
2022/08/04 04:59:57;;;;;;;0.40;0.20;;;20.50;99.90;;;;;;4987602;28;20410;-70
2022/08/04 05:03:20;;;;;;;0.40;0.20;;;20.50;99.90;;;;;;4988313;28;20406;-70
2022/08/04 05:05:51;;;;;;;0.40;0.30;;;20.40;99.90;;;;;;4929141;29;20430;-69
2022/08/04 05:08:47;;;;;;;0.40;0.30;;;20.60;99.90;;;;;;4912906;28;20442;-69
2022/08/04 05:11:33;;;;;;;0.40;0.30;;;20.50;99.90;;;;;;4964721;28;20403;-69
2022/08/04 05:14:08;;;;;;;0.40;0.30;;;20.60;99.90;;;;;;4976831;28;20439;-70
2022/08/04 05:16:48;;;;;;;0.43;0.32;;;20.80;99.90;;;;;;4987797;28;20457;-69
2022/08/04 05:19:30;;;;;;;0.40;0.30;;;20.80;99.90;;;;;;4987318;28;20747;-69
2022/08/04 05:22:01;;;;;;;0.40;0.30;;;20.80;99.90;;;;;;4987712;28;20465;-70
2022/08/04 05:24:30;;;;;;;0.40;0.20;;;20.80;99.90;;;;;;4987585;28;20422;-69
2022/08/04 05:27:01;;;;;;;0.40;0.20;;;20.80;99.90;;;;;;4987636;28;20395;-70
2022/08/04 05:29:33;;;;;;;0.40;0.20;;;20.80;99.90;;;;;;4987508;28;20485;-69
2022/08/04 05:32:03;;;;;;;2.90;1.30;;;20.80;99.90;;;;;;4987400;28;20382;-70
2022/08/04 05:34:34;;;;;;;0.40;0.30;;;20.90;99.90;;;;;;4987620;28;20399;-70
2022/08/04 05:37:07;;;;;;;0.90;0.80;;;21.00;99.90;;;;;;4987415;28;20386;-70
2022/08/04 05:39:42;;;;;;;0.40;0.20;;;21.20;99.90;;;;;;4986945;28;20422;-70
2022/08/04 05:42:11;;;;;;;0.40;0.20;;;21.10;99.90;;;;;;4987176;28;20406;-69
2022/08/04 05:44:39;;;;;;;0.40;0.20;;;21.20;99.90;;;;;;4971173;28;20498;-69
2022/08/04 05:47:06;;;;;;;0.40;0.20;;;21.30;99.90;;;;;;4972363;28;20514;-69
2022/08/04 05:49:34;;;;;;;0.40;0.20;;;21.40;99.90;;;;;;4976296;28;20403;-69
2022/08/04 05:52:01;;;;;;;0.52;0.43;;;21.40;99.90;;;;;;4990654;28;20419;-69
2022/08/04 05:54:29;;;;;;;0.60;0.60;;;21.40;99.90;;;;;;4972849;28;20484;-69
2022/08/04 05:56:56;;;;;;;0.40;0.30;;;21.50;99.90;;;;;;4978744;28;20413;-70
2022/08/04 05:59:24;;;;;;;0.57;0.38;;;21.50;99.90;;;;;;4974503;28;20422;-69
2022/08/04 06:01:54;;;;;;;0.50;0.45;;;21.70;99.90;;;;;;4990515;28;20395;-69
2022/08/04 06:04:21;;;;;;;1.33;0.70;;;21.80;99.90;;;;;;4989674;28;20403;-69
2022/08/04 06:06:48;;;;;;;0.40;0.30;;;21.80;99.90;;;;;;4974517;28;20453;-70
2022/08/04 06:09:14;;;;;;;0.47;0.35;;;21.90;99.90;;;;;;4973784;28;20488;-69
2022/08/04 06:11:41;;;;;;;0.40;0.20;;;21.90;99.90;;;;;;4974216;28;20449;-69
2022/08/04 06:14:12;;;;;;;0.40;0.30;;;22.00;99.90;;;;;;4973854;28;20409;-69
2022/08/04 06:16:41;;;;;;;0.40;0.30;;;22.20;99.90;;;;;;4990090;28;20510;-68
2022/08/04 06:19:10;;;;;;;0.40;0.22;;;22.30;99.90;;;;;;4990028;28;20415;-70
2022/08/04 06:21:44;;;;;;;0.40;0.30;;;22.50;99.90;;;;;;4974701;28;20403;-69
2022/08/04 06:24:14;;;;;;;0.63;0.63;;;22.50;99.90;;;;;;4990177;28;20395;-69
2022/08/04 06:26:41;;;;;;;0.40;0.30;;;22.60;99.90;;;;;;4990370;28;20390;-69
2022/08/04 06:29:16;;;;;;;0.40;0.20;;;22.70;99.90;;;;;;4989839;28;20399;-70
2022/08/04 06:31:46;;;;;;;0.40;0.30;;;22.80;99.90;;;;;;4989246;28;20394;-70
2022/08/04 06:34:15;;;;;;;0.40;0.20;;;22.90;99.90;;;;;;4974171;28;20894;-70
2022/08/04 06:36:42;;;;;;;0.40;0.20;;;23.00;99.90;;;;;;4973921;28;20918;-70
2022/08/04 06:39:09;;;;;;;0.40;0.30;;;23.10;99.90;;;;;;4973430;28;20422;-69
2022/08/04 06:41:36;;;;;;;0.40;0.30;;;23.20;99.90;;;;;;4973809;28;20407;-70
2022/08/04 06:44:06;;;;;;;0.40;0.20;;;23.30;99.90;;;;;;4973688;28;20457;-70
2022/08/04 06:46:34;;;;;;;0.50;0.50;;;23.40;99.90;;;;;;4989503;28;20502;-69
2022/08/04 06:49:00;;;;;;;0.40;0.30;;;23.50;99.90;;;;;;4989525;28;20502;-69
2022/08/04 06:51:29;;;;;;;0.40;0.20;;;23.70;99.90;;;;;;4974202;28;20482;-69
2022/08/04 06:53:55;;;;;;;0.40;0.20;;;23.80;99.90;;;;;;4989858;28;20387;-69
2022/08/04 06:56:22;;;;;;;0.40;0.20;;;23.90;99.40;;;;;;4972723;28;20481;-69
2022/08/04 06:58:50;;;;;;;0.40;0.30;;;24.20;98.60;;;;;;4969087;28;20474;-69
2022/08/04 07:01:19;;;;;;;0.40;0.30;;;24.30;97.50;;;;;;4960418;28;20813;-69
2022/08/04 07:03:45;;;;;;;0.40;0.20;;;24.40;97.10;;;;;;4973611;28;20406;-69
2022/08/04 07:06:12;;;;;;;0.40;0.20;;;24.40;97.60;;;;;;4973131;28;20402;-69
2022/08/04 07:08:39;;;;;;;0.40;0.20;;;24.50;96.30;;;;;;4973591;28;20759;-69
2022/08/04 07:11:05;;;;;;;0.40;0.30;;;24.70;95.30;;;;;;4973098;28;20402;-69
2022/08/04 07:13:32;;;;;;;0.40;0.30;;;24.90;94.80;;;;;;4989854;28;20394;-69
2022/08/04 07:15:59;;;;;;;0.40;0.30;;;25.00;93.70;;;;;;4973097;28;20407;-69
2022/08/04 07:18:25;;;;;;;0.40;0.30;;;25.10;92.80;;;;;;4988635;28;20407;-69
2022/08/04 07:20:52;;;;;;;0.60;0.50;;;25.40;92.90;;;;;;4973229;28;20402;-69
2022/08/04 07:23:23;;;;;;;0.55;0.45;;;25.60;92.50;;;;;;4973361;28;20407;-69
2022/08/04 07:25:54;;;;;;;0.40;0.30;;;25.70;92.30;;;;;;4989014;28;20856;-69
2022/08/04 07:28:22;;;;;;;0.40;0.20;;;25.80;91.80;;;;;;4989022;28;20849;-69
2022/08/04 07:30:49;;;;;;;0.40;0.30;;;25.90;91.80;;;;;;4988902;28;20953;-69
2022/08/04 07:33:16;;;;;;;0.40;0.30;;;25.90;92.00;;;;;;4972714;28;20854;-69
2022/08/04 07:35:43;;;;;;;0.40;0.30;;;25.90;91.40;;;;;;4988953;28;20955;-70
2022/08/04 07:38:10;;;;;;;0.40;0.30;;;25.90;92.50;;;;;;4988951;28;20394;-69
2022/08/04 07:40:37;;;;;;;0.40;0.30;;;26.00;92.00;;;;;;4988952;28;20425;-69
2022/08/04 07:43:03;;;;;;;0.40;0.30;;;26.30;91.10;;;;;;4972793;28;20394;-69
2022/08/04 07:45:30;;;;;;;0.40;0.30;;;26.40;90.80;;;;;;4972503;28;20426;-68
2022/08/04 07:47:56;;;;;;;0.40;0.28;;;26.80;87.90;;;;;;4972923;28;20752;-69
2022/08/04 07:50:23;;;;;;;0.40;0.30;;;27.00;88.20;;;;;;4988322;28;20489;-69
2022/08/04 07:52:49;;;;;;;0.40;0.30;;;27.20;87.20;;;;;;4989326;28;20782;-69
2022/08/04 07:55:15;;;;;;;0.40;0.20;;;27.40;84.90;;;;;;4972596;28;20406;-70
2022/08/04 07:57:41;;;;;;;0.90;0.70;;;27.60;83.20;;;;;;4988740;28;20387;-69
2022/08/04 08:00:09;;;;;;;0.40;0.20;;;27.50;83.00;;;;;;4972331;28;20916;-69
2022/08/04 08:02:37;;;;;;;0.40;0.25;;;27.60;81.90;;;;;;4972874;28;20403;-69
2022/08/04 08:05:04;;;;;;;0.40;0.20;;;27.70;81.60;;;;;;4972534;28;20407;-70
2022/08/04 08:07:30;;;;;;;0.40;0.30;;;27.80;80.70;;;;;;4972338;28;20405;-69
2022/08/04 08:09:56;;;;;;;0.40;0.20;;;28.00;80.00;;;;;;4972361;28;20850;-70
2022/08/04 08:12:22;;;;;;;0.57;0.27;;;28.00;80.00;;;;;;4972549;28;20755;-70
2022/08/04 08:14:48;;;;;;;0.40;0.30;;;28.00;79.90;;;;;;4988816;28;20747;-69
2022/08/04 08:17:14;;;;;;;0.50;0.50;;;28.20;77.90;;;;;;4971658;28;20472;-69
2022/08/04 08:19:40;;;;;;;0.40;0.20;;;28.30;77.10;;;;;;4971814;28;20415;-69
2022/08/04 08:22:06;;;;;;;0.40;0.20;;;28.20;77.60;;;;;;4972336;28;20493;-69
2022/08/04 08:24:36;;;;;;;0.40;0.30;;;28.50;76.60;;;;;;4972278;28;20842;-70
2022/08/04 08:27:03;;;;;;;0.40;0.30;;;28.50;76.60;;;;;;4988379;28;20390;-69
2022/08/04 08:29:29;;;;;;;0.40;0.30;;;28.60;76.00;;;;;;4972056;28;20467;-69
2022/08/04 08:31:55;;;;;;;0.40;0.22;;;28.70;74.90;;;;;;4988289;28;20391;-70
2022/08/04 08:34:22;;;;;;;0.40;0.20;;;28.70;75.70;;;;;;4971399;28;20425;-69
2022/08/04 08:36:56;;;;;;;0.40;0.40;;;28.90;75.50;;;;;;4971794;28;20404;-70
2022/08/04 08:39:43;;;;;;;0.40;0.30;;;28.90;75.70;;;;;;4987622;28;20426;-69
2022/08/04 08:42:30;;;;;;;0.40;0.30;;;29.10;73.00;;;;;;4988008;28;20816;-70
2022/08/04 08:45:14;;;;;;;0.40;0.23;;;29.00;74.40;;;;;;4988037;28;20403;-69
2022/08/04 08:47:50;;;;;;;0.40;0.20;;;29.10;73.30;;;;;;4987991;28;20521;-69
2022/08/04 08:50:39;;;;;;;0.40;0.40;;;29.10;73.00;;;;;;4987817;28;20826;-69
2022/08/04 08:53:10;;;;;;;0.40;0.20;;;29.30;73.20;;;;;;4987834;28;20503;-69
2022/08/04 08:55:47;;;;;;;0.40;0.25;;;29.30;72.00;;;;;;4977080;28;20423;-70
2022/08/04 08:58:38;;;;;;;0.40;0.30;;;29.30;69.90;;;;;;4968953;28;20441;-69
2022/08/04 09:01:33;;;;;;;0.40;0.20;;;29.40;70.60;;;;;;4968792;28;20471;-69
2022/08/04 09:04:20;;;;;;;0.40;0.20;;;29.40;71.10;;;;;;4980831;28;20398;-69
2022/08/04 09:07:20;;;;;;;0.40;0.20;;;29.60;69.20;;;;;;4987942;28;20889;-69
2022/08/04 09:09:58;;;;;;;0.40;0.20;;;29.50;70.70;;;;;;4988151;28;20426;-70
2022/08/04 09:12:43;;;;;;;0.40;0.30;;;30.00;69.10;;;;;;4987570;28;20390;-69
2022/08/04 09:15:38;;;;;;;0.40;0.30;;;29.90;68.40;;;;;;4987719;28;20403;-69
2022/08/04 09:18:52;;;;;;;0.40;0.30;;;30.20;66.20;;;;;;4933980;28;20396;-70
2022/08/04 09:21:24;;;;;;;0.40;0.20;;;30.20;66.80;;;;;;4948027;28;20406;-69
2022/08/04 09:24:22;;;;;;;0.40;0.30;;;30.20;66.20;;;;;;4967768;28;20817;-70
2022/08/04 09:27:00;;;;;;;0.40;0.20;;;30.30;64.70;;;;;;4957059;28;20461;-70
2022/08/04 09:29:53;;;;;;;0.40;0.30;;;30.40;64.80;;;;;;4990763;28;20420;-69
2022/08/04 09:32:37;;;;;;;0.40;0.30;;;30.60;62.90;;;;;;4990779;28;20465;-69
2022/08/04 09:35:10;;;;;;;0.40;0.30;;;30.60;61.10;;;;;;4990899;28;20444;-69
2022/08/04 09:38:12;;;;;;;0.40;0.30;;;30.90;62.10;;;;;;4990524;28;20402;-69
2022/08/04 09:41:05;;;;;;;0.40;0.30;;;30.90;61.50;;;;;;4990753;28;20816;-68
2022/08/04 09:43:55;;;;;;;0.40;0.30;;;30.90;59.30;;;;;;4990286;28;20945;-68
2022/08/04 09:46:29;;;;;;;0.40;0.20;;;30.90;59.90;;;;;;4989928;28;20423;-68
2022/08/04 09:49:02;;;;;;;0.40;0.30;;;30.90;58.30;;;;;;4990806;28;20497;-68
2022/08/04 09:51:52;;;;;;;0.40;0.20;;;30.90;59.00;;;;;;4990178;28;20434;-68
2022/08/04 09:55:05;;;;;;;0.40;0.30;;;31.10;58.10;;;;;;4990038;28;20499;-68
2022/08/04 09:57:33;;;;;;;0.40;0.30;;;31.10;56.00;;;;;;4967252;28;20411;-68
2022/08/04 10:00:08;;;;;;;0.40;0.30;;;31.30;56.80;;;;;;4990505;28;20418;-68
2022/08/04 10:02:37;;;;;;;0.40;0.20;;;31.40;56.80;;;;;;4990193;28;20486;-68
2022/08/04 10:05:10;;;;;;;0.40;0.30;;;31.40;55.60;;;;;;4990083;28;20786;-68
2022/08/04 10:08:12;;;;;;;0.40;0.30;;;31.70;52.60;;;;;;4990322;28;20394;-68
2022/08/04 10:11:02;;;;;;;0.40;0.20;;;31.60;53.40;;;;;;4990255;28;20434;-68
2022/08/04 10:13:52;;;;;;;0.40;0.30;;;31.70;53.10;;;;;;4990402;28;20417;-68
2022/08/04 10:16:36;;;;;;;0.40;0.20;;;31.90;53.70;;;;;;4989735;28;20426;-69
2022/08/04 10:19:13;;;;;;;0.40;0.20;;;32.00;52.10;;;;;;4991486;28;20484;-69
2022/08/04 10:21:45;;;;;;;0.40;0.20;;;32.10;48.90;;;;;;4989979;28;20486;-69
2022/08/04 10:24:37;;;;;;;0.40;0.20;;;31.90;50.80;;;;;;4990442;28;20422;-69
2022/08/04 10:27:16;;;;;;;0.40;0.20;;;32.00;51.20;;;;;;4990206;28;20421;-69
2022/08/04 10:29:46;;;;;;;0.40;0.20;;;32.30;51.10;;;;;;4990020;28;20434;-69
2022/08/04 10:32:22;;;;;;;0.40;0.20;;;32.40;49.20;;;;;;4973835;28;20407;-68
2022/08/04 10:34:56;;;;;;;0.40;0.20;;;32.30;47.50;;;;;;4990144;28;20507;-69
2022/08/04 10:37:35;;;;;;;0.40;0.20;;;32.30;49.00;;;;;;4989595;28;20797;-69
2022/08/04 10:40:44;;;;;;;0.40;0.20;;;32.30;47.80;;;;;;4989342;28;20773;-69
2022/08/04 10:43:15;;;;;;;0.40;0.20;;;32.30;47.30;;;;;;4989902;28;20407;-69
2022/08/04 10:45:49;;;;;;;0.40;0.20;;;32.40;47.10;;;;;;4989929;28;20517;-69
2022/08/04 10:48:36;;;;;;;0.40;0.20;;;32.60;47.10;;;;;;4989627;28;20424;-68
2022/08/04 10:51:21;;;;;;;0.40;0.30;;;32.80;45.80;;;;;;4990074;28;20518;-68
2022/08/04 10:53:54;;;;;;;0.40;0.20;;;32.90;45.70;;;;;;4990005;28;20873;-69
2022/08/04 10:56:30;;;;;;;0.40;0.20;;;32.70;45.40;;;;;;4972770;28;20448;-68
2022/08/04 10:59:23;;;;;;;0.40;0.30;;;32.70;46.40;;;;;;4970688;28;20515;-68
2022/08/04 11:01:53;;;;;;;0.40;0.20;;;32.90;45.30;;;;;;4970258;28;20421;-68
2022/08/04 11:04:34;;;;;;;0.40;0.20;;;32.70;45.60;;;;;;4969974;28;20737;-68
2022/08/04 11:07:01;;;;;;;0.40;0.20;;;32.80;44.80;;;;;;4972710;28;20427;-68
2022/08/04 11:09:29;;;;;;;0.40;0.30;;;33.00;42.90;;;;;;4972938;28;20715;-68
2022/08/04 11:12:08;;;;;;;0.40;0.20;;;33.10;42.20;;;;;;4989207;28;20541;-68
2022/08/04 11:14:48;;;;;;;0.40;0.20;;;33.20;41.80;;;;;;4989457;28;20403;-68
2022/08/04 11:17:32;;;;;;;0.40;0.20;;;33.30;41.80;;;;;;4989402;28;20912;-68
2022/08/04 11:20:12;;;;;;;0.40;0.20;;;33.50;41.10;;;;;;4989348;28;20430;-68
2022/08/04 11:22:49;;;;;;;0.40;0.20;;;33.60;40.60;;;;;;4990306;28;20751;-69
2022/08/04 11:25:27;;;;;;;0.40;0.20;;;34.00;41.30;;;;;;4989299;28;20421;-68
2022/08/04 11:28:06;;;;;;;0.40;0.30;;;34.10;42.20;;;;;;4989169;28;20747;-69
2022/08/04 11:30:42;;;;;;;0.40;0.30;;;34.20;40.80;;;;;;4989077;28;20921;-69
2022/08/04 11:33:41;;;;;;;0.40;0.20;;;34.20;39.50;;;;;;4989333;28;20395;-68
2022/08/04 11:36:13;;;;;;;0.40;0.20;;;34.40;38.90;;;;;;4957081;28;20414;-68
2022/08/04 11:38:55;;;;;;;0.40;0.20;;;35.00;39.00;;;;;;4988531;28;20403;-69
2022/08/04 11:41:44;;;;;;;0.40;0.27;;;35.40;40.80;;;;;;4989060;28;20403;-69
2022/08/04 11:44:33;;;;;;;0.40;0.20;;;36.10;38.70;;;;;;4949986;28;20410;-69
2022/08/04 11:47:16;;;;;;;0.40;0.20;;;36.50;37.10;;;;;;4982113;28;20471;-69
2022/08/04 11:50:04;;;;;;;0.40;0.20;;;36.80;34.30;;;;;;4951340;28;20393;-69
2022/08/04 11:52:32;;;;;;;0.40;0.20;;;37.00;34.00;;;;;;4982184;28;20402;-70
2022/08/04 11:55:02;;;;;;;0.40;0.20;;;37.20;32.80;;;;;;4972043;28;20396;-69
2022/08/04 11:57:29;;;;;;;0.40;0.20;;;37.40;32.50;;;;;;4953399;28;20412;-69
2022/08/04 11:59:57;;;;;;;0.40;0.20;;;36.90;31.30;;;;;;4964749;28;20419;-69
2022/08/04 12:02:36;;;;;;;0.40;0.20;;;36.90;31.60;;;;;;4988404;28;20402;-69
2022/08/04 12:05:04;;;;;;;0.40;0.20;;;37.20;33.00;;;;;;4988716;28;20485;-69
2022/08/04 12:08:07;;;;;;;0.40;0.20;;;37.60;33.60;;;;;;4972460;28;20405;-69
2022/08/04 12:11:04;;;;;;;0.40;0.20;;;37.40;31.90;;;;;;4988395;28;20720;-69
2022/08/04 12:13:56;;;;;;;0.40;0.20;;;38.20;32.10;;;;;;4988074;28;20465;-69
2022/08/04 12:16:51;;;;;;;0.40;0.20;;;38.30;33.10;;;;;;4988732;28;20818;-69
2022/08/04 12:19:28;;;;;;;0.40;0.20;;;38.90;31.40;;;;;;4988378;28;20467;-69
2022/08/04 12:21:58;;;;;;;0.40;0.20;;;39.00;31.10;;;;;;4988408;28;20456;-69
2022/08/04 12:24:33;;;;;;;0.40;0.20;;;38.70;29.50;;;;;;4988177;28;20405;-70
2022/08/04 12:27:09;;;;;;;0.40;0.20;;;39.30;31.00;;;;;;4988362;28;20410;-69
2022/08/04 12:29:39;;;;;;;0.40;0.20;;;39.70;30.00;;;;;;4988314;28;20394;-69
2022/08/04 12:32:24;;;;;;;0.40;0.20;;;39.30;28.20;;;;;;4988528;28;20471;-69
2022/08/04 12:35:14;;;;;;;0.40;0.20;;;39.70;28.30;;;;;;4988816;28;20426;-70
2022/08/04 12:38:10;;;;;;;0.40;0.20;;;39.30;29.10;;;;;;4988426;28;20407;-69
2022/08/04 12:40:38;;;;;;;0.40;0.20;;;39.20;27.30;;;;;;4987240;28;20518;-69
2022/08/04 12:43:10;;;;;;;0.40;0.20;;;39.00;28.90;;;;;;4988031;28;20406;-69
2022/08/04 12:45:43;;;;;;;0.40;0.20;;;39.20;27.60;;;;;;4987738;28;20974;-69
2022/08/04 12:48:10;;;;;;;0.40;0.20;;;39.10;28.00;;;;;;4988305;28;20398;-69
2022/08/04 12:50:37;;;;;;;0.40;0.20;;;39.00;27.50;;;;;;4987949;28;20747;-69
2022/08/04 12:53:11;;;;;;;0.40;0.20;;;38.80;28.40;;;;;;4987848;28;20399;-69
2022/08/04 12:55:43;;;;;;;0.40;0.20;;;38.50;27.10;;;;;;4980672;28;20402;-69
2022/08/04 12:58:17;;;;;;;0.40;0.20;;;38.90;27.20;;;;;;4991294;28;20402;-68
2022/08/04 13:00:46;;;;;;;0.40;0.20;;;39.40;27.70;;;;;;4991316;28;20957;-69
2022/08/04 13:03:14;;;;;;;0.40;0.20;;;39.30;28.80;;;;;;4975659;28;20965;-69
2022/08/04 13:05:41;;;;;;;0.40;0.20;;;39.30;26.40;;;;;;4991047;28;20391;-68
2022/08/04 13:08:09;;;;;;;0.40;0.20;;;39.00;25.90;;;;;;4974712;28;20933;-68
2022/08/04 13:10:43;;;;;;;0.40;0.20;;;38.80;26.90;;;;;;4991182;28;20397;-68
2022/08/04 13:13:18;;;;;;;0.40;0.20;;;38.30;26.40;;;;;;4991410;28;20402;-69
2022/08/04 13:16:03;;;;;;;0.40;0.20;;;38.80;27.30;;;;;;4990929;28;20421;-68
2022/08/04 13:18:31;;;;;;;0.40;0.20;;;38.20;27.60;;;;;;4990802;28;20543;-69
2022/08/04 13:21:20;;;;;;;0.40;0.20;;;38.70;28.90;;;;;;4991278;28;20403;-69
2022/08/04 13:23:49;;;;;;;0.40;0.20;;;38.70;28.70;;;;;;4974835;28;20428;-69
2022/08/04 13:26:16;;;;;;;0.40;0.20;;;39.30;28.80;;;;;;4974923;28;20890;-68
2022/08/04 13:28:45;;;;;;;0.40;0.20;;;39.20;26.70;;;;;;4974497;28;20395;-68
2022/08/04 13:31:14;;;;;;;0.40;0.20;;;38.20;26.90;;;;;;4975503;28;20557;-68
2022/08/04 13:33:42;;;;;;;0.40;0.20;;;38.00;27.70;;;;;;4974693;28;20394;-68
2022/08/04 13:36:09;;;;;;;0.70;0.50;;;37.80;27.70;;;;;;4990946;28;20478;-69
2022/08/04 13:38:58;;;;;;;0.40;0.20;;;37.90;28.40;;;;;;4974813;28;20478;-68